createdAt,value
2019-01-03T00:02:04.335Z,57359.57
2019-01-03T00:04:54.624Z,57359.57
2019-01-03T00:07:51.926Z,57359.57
2019-01-03T00:10:57.884Z,57359.57
2019-01-03T00:13:59.103Z,57359.57
2019-01-03T00:16:56.607Z,57359.57
2019-01-03T00:19:53.967Z,57359.57
2019-01-03T00:23:01.488Z,57359.57
2019-01-03T00:26:01.053Z,57359.57
2019-01-03T00:28:59.311Z,57359.57
2019-01-03T00:31:58.023Z,57359.57
2019-01-03T00:35:02.741Z,57359.57
2019-01-03T00:38:02.589Z,57359.57
2019-01-03T00:41:04.769Z,57359.57
2019-01-03T00:44:01.686Z,57359.57
2019-01-03T00:47:09.185Z,57359.57
2019-01-03T00:50:02.715Z,57359.57
2019-01-03T00:53:00.812Z,57359.57
2019-01-03T00:55:57.878Z,57359.57
2019-01-03T00:59:01.761Z,57359.57
2019-01-03T01:01:57.779Z,57359.57
2019-01-03T01:04:55.212Z,57359.57
2019-01-03T01:08:00.280Z,57359.57
2019-01-03T01:10:57.121Z,57359.57
2019-01-03T01:13:55.564Z,57359.57
2019-01-03T01:16:57.046Z,57359.57
2019-01-03T01:19:53.741Z,57359.57
2019-01-03T01:23:00.795Z,57359.57
2019-01-03T01:25:51.391Z,57359.57
2019-01-03T01:28:55.198Z,57359.57
2019-01-03T01:32:05.284Z,57359.57
2019-01-03T01:35:05.256Z,57359.57
2019-01-03T01:38:02.122Z,57359.57
2019-01-03T01:41:09.210Z,57359.57
2019-01-03T01:44:15.454Z,57359.57
2019-01-03T01:47:12.995Z,57359.57
2019-01-03T01:50:10.004Z,57359.57
2019-01-03T01:53:08.099Z,57359.57
2019-01-03T01:56:04.836Z,57359.57
2019-01-03T01:59:02.957Z,57359.57
2019-01-03T02:02:08.205Z,57359.57
2019-01-03T02:05:18.741Z,57359.57
2019-01-03T02:08:15.873Z,57359.57
2019-01-03T02:11:12.950Z,57359.57
2019-01-03T02:14:09.722Z,57359.57
2019-01-03T02:17:06.677Z,57359.57
2019-01-03T02:20:13.940Z,57359.57
2019-01-03T02:23:08.352Z,57359.57
2019-01-03T02:26:15.802Z,57359.57
2019-01-03T02:29:24.737Z,57359.57
2019-01-03T02:32:31.709Z,57359.57
2019-01-03T02:35:29.987Z,57359.57
2019-01-03T02:38:39.879Z,57359.57
2019-01-03T02:41:56.479Z,57359.57
2019-01-03T02:45:08.580Z,57359.57
2019-01-03T02:48:05.328Z,57359.57
2019-01-03T02:51:03.159Z,57359.57
2019-01-03T02:54:04.172Z,57359.57
2019-01-03T02:57:02.310Z,57359.57
2019-01-03T03:00:03.355Z,57359.57
2019-01-03T03:03:01.438Z,57359.57
2019-01-03T03:05:57.662Z,57359.57
2019-01-03T03:08:46.617Z,57359.57
2019-01-03T03:11:45.097Z,57359.57
2019-01-03T03:14:52.308Z,57359.57
2019-01-03T03:17:46.362Z,57359.57
2019-01-03T03:20:47.825Z,57359.57
2019-01-03T03:23:49.193Z,57359.57
2019-01-03T03:26:46.101Z,57359.57
2019-01-03T03:29:59.376Z,57359.57
2019-01-03T03:32:56.304Z,57359.57
2019-01-03T03:35:58.585Z,57359.57
2019-01-03T03:38:55.621Z,57359.57
2019-01-03T03:41:53.905Z,57359.57
2019-01-03T03:44:50.663Z,57359.57
2019-01-03T03:47:55.016Z,57359.57
2019-01-03T03:50:56.221Z,57359.57
2019-01-03T03:53:53.115Z,57359.57
2019-01-03T03:56:47.787Z,57359.57
2019-01-03T03:59:45.037Z,57359.57
2019-01-03T04:02:52.625Z,57359.57
2019-01-03T04:05:49.876Z,57359.57
2019-01-03T04:08:45.203Z,57359.57
2019-01-03T04:12:22.999Z,101664.84
2019-01-03T04:15:26.473Z,101660.45
2019-01-03T04:18:23.547Z,101658.18
2019-01-03T04:21:20.718Z,101653.09
2019-01-03T04:24:19.081Z,101651.02
2019-01-03T04:27:16.111Z,101650.09
2019-01-03T04:30:15.560Z,101642.57
2019-01-03T04:33:10.130Z,101643.39
2019-01-03T04:35:59.494Z,101639.92
2019-01-03T04:39:02.178Z,101645.50
2019-01-03T04:41:59.643Z,101648.91
2019-01-03T04:44:51.999Z,101652.52
2019-01-03T04:48:01.328Z,101647.84
2019-01-03T04:50:56.134Z,101645.34
2019-01-03T04:54:11.787Z,101651.28
2019-01-03T05:00:17.087Z,101646.44
2019-01-03T05:03:28.884Z,101638.43
2019-01-03T05:06:26.000Z,101639.41
2019-01-03T05:09:31.789Z,101642.23
2019-01-03T05:12:28.933Z,101633.66
2019-01-03T05:15:26.830Z,101630.30
2019-01-03T05:18:23.883Z,101629.17
2019-01-03T05:21:37.487Z,101621.27
2019-01-03T05:24:44.172Z,101628.84
2019-01-03T05:27:51.571Z,101629.70
2019-01-03T05:30:43.581Z,101623.55
2019-01-03T05:33:36.661Z,101632.52
2019-01-03T05:36:34.713Z,101629.27
2019-01-03T05:39:45.006Z,101631.22
2019-01-03T05:42:48.615Z,101638.59
2019-01-03T05:45:53.916Z,101639.78
2019-01-03T05:48:52.694Z,101643.23
2019-01-03T05:51:57.790Z,101646.69
2019-01-03T05:55:06.811Z,101638.44
2019-01-03T05:58:08.408Z,101646.52
2019-01-03T06:01:14.190Z,101642.83
2019-01-03T06:04:04.803Z,101640.95
2019-01-03T06:07:02.917Z,101640.24
2019-01-03T06:09:54.192Z,101644.80
2019-01-03T06:12:57.225Z,101644.70
2019-01-03T06:15:52.719Z,101643.81
2019-01-03T06:18:49.423Z,101652.53
2019-01-03T06:21:57.610Z,101645.28
2019-01-03T06:25:08.882Z,101654.93
2019-01-03T06:28:01.903Z,101644.77
2019-01-03T06:30:58.914Z,101652.80
2019-01-03T06:33:56.057Z,101648.50
2019-01-03T06:36:48.838Z,101660.70
2019-01-03T06:39:52.959Z,101657.05
2019-01-03T06:42:56.229Z,101661.60
2019-01-03T06:46:04.379Z,101662.26
2019-01-03T06:48:57.524Z,101659.88
2019-01-03T06:51:49.527Z,101655.33
2019-01-03T06:54:51.294Z,101656.52
2019-01-03T06:57:48.306Z,101656.98
2019-01-03T07:00:39.993Z,101650.16
2019-01-03T07:03:37.252Z,101644.87
2019-01-03T07:06:53.604Z,101654.81
2019-01-03T07:09:50.522Z,101650.63
2019-01-03T07:12:47.367Z,101651.44
2019-01-03T07:15:44.161Z,101654.25
2019-01-03T07:18:40.986Z,101648.44
2019-01-03T07:21:28.027Z,101650.94
2019-01-03T07:24:25.055Z,101641.35
2019-01-03T07:27:18.857Z,101651.45
2019-01-03T07:30:32.405Z,101649.95
2019-01-03T07:33:28.985Z,101654.55
2019-01-03T07:36:32.816Z,101653.94
2019-01-03T07:39:43.009Z,101658.53
2019-01-03T07:42:39.900Z,101658.33
2019-01-03T07:45:36.562Z,101653.35
2019-01-03T07:48:38.710Z,101648.22
2019-01-03T07:51:44.172Z,101653.09
2019-01-03T07:54:45.853Z,101652.47
2019-01-03T07:57:34.779Z,101649.86
2019-01-03T08:00:31.063Z,101668.52
2019-01-03T08:03:29.233Z,101653.08
2019-01-03T08:06:33.370Z,101657.08
2019-01-03T08:09:30.089Z,101656.78
2019-01-03T08:12:30.314Z,101665.07
2019-01-03T08:15:20.594Z,101656.22
2019-01-03T08:18:25.427Z,101653.57
2019-01-03T08:21:22.275Z,101665.55
2019-01-03T08:24:28.285Z,101656.63
2019-01-03T08:27:26.719Z,101649.19
2019-01-03T08:30:25.642Z,101652.41
2019-01-03T08:33:34.913Z,101640.92
2019-01-03T08:36:32.105Z,101654.50
2019-01-03T08:39:28.885Z,101657.23
2019-01-03T08:42:43.205Z,101653.45
2019-01-03T08:45:50.282Z,101651.20
2019-01-03T08:48:49.219Z,101647.31
2019-01-03T08:51:53.386Z,101647.78
2019-01-03T08:54:51.568Z,101648.70
2019-01-03T08:57:48.349Z,101642.44
2019-01-03T09:00:45.923Z,101649.95
2019-01-03T09:03:48.148Z,101659.76
2019-01-03T09:06:50.061Z,101651.42
2019-01-03T09:09:43.781Z,101661.12
2019-01-03T09:12:40.760Z,101650.40
2019-01-03T09:15:39.899Z,101655.16
2019-01-03T09:18:38.081Z,101643.24
2019-01-03T09:21:35.893Z,101663.47
2019-01-03T09:24:33.431Z,101660.98
2019-01-03T09:27:30.977Z,101663.26
2019-01-03T09:30:28.786Z,101653.24
2019-01-03T09:33:26.546Z,101645.12
2019-01-03T09:36:18.049Z,101646.06
2019-01-03T09:39:22.697Z,101642.42
2019-01-03T09:42:20.751Z,101641.66
2019-01-03T09:45:00.542Z,101647.80
2019-01-03T09:47:39.784Z,101642.00
2019-01-03T09:50:19.014Z,101635.74
2019-01-03T09:52:58.853Z,101620.34
2019-01-03T09:55:38.031Z,101633.02
2019-01-03T09:58:17.756Z,101644.75
2019-01-03T10:00:57.514Z,101629.61
2019-01-03T10:03:37.302Z,101646.30
2019-01-03T10:06:16.564Z,101638.45
2019-01-03T10:08:55.795Z,101624.78
2019-01-03T10:11:35.655Z,101616.25
2019-01-03T10:14:15.382Z,101635.03
2019-01-03T10:16:55.291Z,101632.67
2019-01-03T10:19:35.082Z,101629.48
2019-01-03T10:22:14.281Z,101618.47
2019-01-03T10:24:53.461Z,101631.66
2019-01-03T10:27:32.556Z,101633.36
2019-01-03T10:30:13.309Z,101624.11
2019-01-03T10:32:53.003Z,101627.70
2019-01-03T10:35:32.896Z,101620.73
2019-01-03T10:38:12.029Z,101628.66
2019-01-03T10:40:51.812Z,101629.68
2019-01-03T10:43:30.961Z,101623.95
2019-01-03T10:46:10.102Z,101628.89
2019-01-03T10:48:51.571Z,101634.50
2019-01-03T10:51:30.758Z,101635.23
2019-01-03T10:54:11.573Z,101639.21
2019-01-03T10:56:51.370Z,101627.72
2019-01-03T10:59:42.403Z,101634.16
2019-01-03T11:02:21.747Z,101637.85
2019-01-03T11:05:00.992Z,101636.73
2019-01-03T11:07:40.204Z,101636.32
2019-01-03T11:10:20.009Z,101642.41
2019-01-03T11:13:00.740Z,101633.70
2019-01-03T11:15:40.352Z,101627.99
2019-01-03T11:18:19.513Z,101620.89
2019-01-03T11:20:59.262Z,101626.89
2019-01-03T11:23:39.295Z,101621.67
2019-01-03T11:26:22.745Z,101623.69
2019-01-03T11:29:02.452Z,101627.08
2019-01-03T11:31:41.577Z,101624.41
2019-01-03T11:34:21.356Z,101613.71
2019-01-03T11:37:00.431Z,101619.22
2019-01-03T11:39:39.619Z,101607.20
2019-01-03T11:42:19.277Z,101606.61
2019-01-03T11:44:58.494Z,101614.52
2019-01-03T11:47:37.669Z,101614.23
2019-01-03T11:50:17.282Z,101622.65
2019-01-03T11:52:56.778Z,101616.80
2019-01-03T11:55:36.067Z,101636.64
2019-01-03T11:58:15.460Z,101640.54
2019-01-03T12:00:57.911Z,101646.45
2019-01-03T12:03:38.187Z,101636.51
2019-01-03T12:06:17.238Z,101635.40
2019-01-03T12:08:56.590Z,101625.64
2019-01-03T12:11:35.773Z,101625.38
2019-01-03T12:14:15.607Z,101616.72
2019-01-03T12:16:54.809Z,101620.13
2019-01-03T12:19:34.739Z,101624.08
2019-01-03T12:22:14.332Z,101614.91
2019-01-03T12:24:53.508Z,101625.86
2019-01-03T12:27:33.160Z,101640.84
2019-01-03T12:30:12.486Z,101639.77
2019-01-03T12:32:51.703Z,101646.85
2019-01-03T12:35:30.856Z,101657.30
2019-01-03T12:38:10.702Z,101659.42
2019-01-03T12:40:49.887Z,101667.32
2019-01-03T12:43:29.044Z,101655.79
2019-01-03T12:46:08.216Z,101657.17
2019-01-03T12:48:48.064Z,101657.42
2019-01-03T12:51:27.749Z,101661.20
2019-01-03T12:54:07.454Z,101658.56
2019-01-03T12:56:46.602Z,101668.65
2019-01-03T12:59:26.038Z,101666.14
2019-01-03T13:02:06.092Z,101667.30
2019-01-03T13:04:45.245Z,101672.84
2019-01-03T13:07:25.040Z,101673.81
2019-01-03T13:10:04.454Z,101680.31
2019-01-03T13:12:44.245Z,101684.72
2019-01-03T13:15:24.011Z,101674.05
2019-01-03T13:18:03.795Z,101685.45
2019-01-03T13:20:43.375Z,101687.16
2019-01-03T13:23:22.634Z,101687.77
2019-01-03T13:26:02.321Z,101689.47
2019-01-03T13:28:41.544Z,101686.50
2019-01-03T13:31:21.352Z,101682.91
2019-01-03T13:34:00.776Z,101686.84
2019-01-03T13:36:41.496Z,101684.81
2019-01-03T13:39:20.669Z,101684.30
2019-01-03T13:42:00.070Z,101690.67
2019-01-03T13:44:42.514Z,101691.05
2019-01-03T13:47:21.627Z,101693.47
2019-01-03T13:50:00.882Z,101691.20
2019-01-03T13:52:40.617Z,101698.03
2019-01-03T13:55:19.919Z,101691.64
2019-01-03T13:57:59.029Z,101694.61
2019-01-03T14:00:38.215Z,101698.06
2019-01-03T14:03:17.292Z,101699.86
2019-01-03T14:05:56.458Z,101692.30
2019-01-03T14:08:36.270Z,101691.05
2019-01-03T14:11:15.476Z,101699.33
2019-01-03T14:13:54.820Z,101704.40
2019-01-03T14:16:43.037Z,101699.95
2019-01-03T14:19:24.779Z,101700.31
2019-01-03T14:22:05.203Z,101695.96
2019-01-03T14:24:44.545Z,101701.14
2019-01-03T14:27:23.898Z,101701.36
2019-01-03T14:30:03.432Z,101704.30
2019-01-03T14:32:43.397Z,101707.54
2019-01-03T14:35:22.819Z,101709.20
2019-01-03T14:38:02.656Z,101709.09
2019-01-03T14:40:44.334Z,101701.04
2019-01-03T14:43:23.754Z,101704.34
2019-01-03T14:46:03.088Z,101707.48
2019-01-03T14:48:42.334Z,101708.98
2019-01-03T14:51:22.085Z,101713.22
2019-01-03T14:54:01.384Z,101712.64
2019-01-03T14:56:41.147Z,101704.14
2019-01-03T14:59:20.460Z,101708.25
2019-01-03T15:01:59.614Z,101703.56
2019-01-03T15:04:38.750Z,101709.28
2019-01-03T15:07:19.630Z,101706.27
2019-01-03T15:09:58.906Z,101714.73
2019-01-03T15:12:41.930Z,101712.06
2019-01-03T15:15:21.118Z,101712.16
2019-01-03T15:18:00.439Z,101716.14
2019-01-03T15:20:39.608Z,101721.78
2019-01-03T15:23:19.954Z,101723.44
2019-01-03T15:25:59.128Z,101724.63
2019-01-03T15:28:39.476Z,101721.37
2019-01-03T15:31:18.604Z,101725.20
2019-01-03T15:33:58.386Z,101719.67
2019-01-03T15:36:38.968Z,101729.09
2019-01-03T15:39:18.055Z,101721.03
2019-01-03T15:41:57.167Z,101729.86
2019-01-03T15:44:36.339Z,101726.06
2019-01-03T15:47:15.499Z,101726.27
2019-01-03T15:49:54.704Z,101725.62
2019-01-03T15:52:33.790Z,101724.73
2019-01-03T15:55:14.070Z,101727.48
2019-01-03T15:57:53.172Z,101738.15
2019-01-03T16:00:32.848Z,101738.05
2019-01-03T16:03:14.292Z,101734.22
2019-01-03T16:05:53.386Z,101744.32
2019-01-03T16:08:32.510Z,101740.02
2019-01-03T16:11:11.559Z,101746.69
2019-01-03T16:13:50.719Z,101741.63
2019-01-03T16:16:29.925Z,101753.74
2019-01-03T16:19:08.990Z,101755.05
2019-01-03T16:21:48.370Z,101750.53
2019-01-03T16:24:27.500Z,101754.27
2019-01-03T16:27:06.800Z,101756.12
2019-01-03T16:29:46.197Z,101762.39
2019-01-03T16:32:25.338Z,101761.09
2019-01-03T16:35:05.289Z,101761.41
2019-01-03T16:37:44.451Z,101761.52
2019-01-03T16:40:23.801Z,101763.69
2019-01-03T16:43:03.110Z,101763.79
2019-01-03T16:45:42.290Z,101764.88
2019-01-03T16:48:21.397Z,101759.97
2019-01-03T16:51:00.826Z,101757.79
2019-01-03T16:53:40.034Z,101764.52
2019-01-03T16:56:19.227Z,101763.73
2019-01-03T16:58:58.667Z,101759.90
2019-01-03T17:01:37.799Z,101757.36
2019-01-03T17:04:17.082Z,101757.37
2019-01-03T17:06:56.267Z,101755.05
2019-01-03T17:09:35.341Z,101764.30
2019-01-03T17:12:14.728Z,101762.96
2019-01-03T17:14:53.999Z,101768.80
2019-01-03T17:17:33.220Z,101769.73
2019-01-03T17:20:14.383Z,101775.89
2019-01-03T17:22:53.635Z,101777.08
2019-01-03T17:25:32.999Z,101778.33
2019-01-03T17:28:12.516Z,101777.80
2019-01-03T17:30:52.085Z,101783.50
2019-01-03T17:33:33.714Z,101779.77
2019-01-03T17:36:13.098Z,101789.89
2019-01-03T17:38:54.302Z,101791.42
2019-01-03T17:41:33.417Z,101797.14
2019-01-03T17:44:13.015Z,101793.93
2019-01-03T17:46:52.298Z,101792.81
2019-01-03T17:49:31.414Z,101793.36
2019-01-03T17:52:10.613Z,101793.72
2019-01-03T17:54:52.321Z,101798.50
2019-01-03T17:57:31.750Z,101794.92
2019-01-03T18:00:19.296Z,101797.53
2019-01-03T18:02:58.482Z,101801.02
2019-01-03T18:05:38.851Z,101799.72
2019-01-03T18:08:18.118Z,101804.88
2019-01-03T18:10:57.274Z,101798.80
2019-01-03T18:13:36.567Z,101789.32
2019-01-03T18:16:16.797Z,101793.70
2019-01-03T18:18:56.029Z,101790.26
2019-01-03T18:21:35.104Z,101800.48
2019-01-03T18:24:14.238Z,101799.44
2019-01-03T18:26:54.453Z,101803.23
2019-01-03T18:29:33.804Z,101804.50
2019-01-03T18:32:13.104Z,101813.77
2019-01-03T18:34:52.373Z,101810.20
2019-01-03T18:37:34.009Z,101808.38
2019-01-03T18:40:16.217Z,101808.15
2019-01-03T18:42:55.908Z,101809.42
2019-01-03T18:45:35.187Z,101814.09
2019-01-03T18:48:14.510Z,101808.17
2019-01-03T18:50:54.282Z,101812.87
2019-01-03T18:53:33.420Z,101818.28
2019-01-03T18:56:14.163Z,101819.50
2019-01-03T18:58:58.401Z,101822.34
2019-01-03T19:01:37.745Z,101803.33
2019-01-03T19:04:17.258Z,101811.88
2019-01-03T19:06:56.405Z,101818.70
2019-01-03T19:09:35.470Z,101822.16
2019-01-03T19:12:14.670Z,101821.99
2019-01-03T19:14:53.856Z,101819.57
2019-01-03T19:17:33.138Z,101820.88
2019-01-03T19:20:12.816Z,101822.98
2019-01-03T19:22:53.507Z,101824.64
2019-01-03T19:25:32.738Z,101819.21
2019-01-03T19:28:11.941Z,101821.26
2019-01-03T19:30:51.193Z,101822.76
2019-01-03T19:33:31.755Z,101811.83
2019-01-03T19:36:11.889Z,101813.00
2019-01-03T19:38:53.457Z,101816.80
2019-01-03T19:41:32.687Z,101823.08
2019-01-03T19:44:12.004Z,101822.91
2019-01-03T19:46:53.819Z,101823.33
2019-01-03T19:49:33.155Z,101824.85
2019-01-03T19:52:12.520Z,101825.36
2019-01-03T19:54:51.896Z,101834.92
2019-01-03T19:57:31.281Z,101826.73
2019-01-03T20:00:13.879Z,101833.14
2019-01-03T20:02:53.082Z,101831.36
2019-01-03T20:05:33.327Z,101835.71
2019-01-03T20:08:12.662Z,101845.62
2019-01-03T20:10:51.814Z,101844.44
2019-01-03T20:13:30.964Z,101848.31
2019-01-03T20:16:13.741Z,101850.66
2019-01-03T20:18:53.154Z,101864.80
2019-01-03T20:21:32.451Z,101864.59
2019-01-03T20:24:11.569Z,101858.73
2019-01-03T20:26:50.859Z,101860.87
2019-01-03T20:29:29.987Z,101870.39
2019-01-03T20:32:09.657Z,101870.44
2019-01-03T20:34:48.785Z,101877.16
2019-01-03T20:37:31.299Z,101878.83
2019-01-03T20:40:10.875Z,101875.44
2019-01-03T20:42:50.192Z,101870.86
2019-01-03T20:45:29.758Z,101875.77
2019-01-03T20:48:09.759Z,101875.89
2019-01-03T20:50:49.131Z,101873.74
2019-01-03T20:53:28.515Z,101884.45
2019-01-03T20:56:08.111Z,101883.30
2019-01-03T20:58:47.307Z,101884.86
2019-01-03T21:01:28.134Z,101881.70
2019-01-03T21:04:07.285Z,101879.70
2019-01-03T21:06:46.639Z,101877.27
2019-01-03T21:09:25.869Z,101875.09
2019-01-03T21:12:07.166Z,101866.16
2019-01-03T21:14:48.383Z,101864.92
2019-01-03T21:17:27.409Z,101859.52
2019-01-03T21:20:09.233Z,101851.00
2019-01-03T21:22:48.435Z,101860.16
2019-01-03T21:25:27.814Z,101857.20
2019-01-03T21:28:07.169Z,101856.69
2019-01-03T21:30:46.252Z,101862.25
2019-01-03T21:33:25.843Z,101852.34
2019-01-03T21:36:05.629Z,101857.31
2019-01-03T21:38:44.758Z,101862.31
2019-01-03T21:41:23.929Z,101866.84
2019-01-03T21:44:03.251Z,101860.63
2019-01-03T21:46:44.411Z,101862.61
2019-01-03T21:49:23.862Z,101866.44
2019-01-03T21:52:03.160Z,101859.05
2019-01-03T21:54:42.648Z,101862.61
2019-01-03T21:57:22.722Z,101860.63
2019-01-03T22:00:01.940Z,101864.63
2019-01-03T22:02:41.197Z,101866.30
2019-01-03T22:05:22.807Z,101873.30
2019-01-03T22:08:02.227Z,101867.94
2019-01-03T22:10:41.947Z,101869.36
2019-01-03T22:13:21.307Z,101860.83
2019-01-03T22:16:02.603Z,101866.50
2019-01-03T22:18:41.682Z,101865.23
2019-01-03T22:21:21.305Z,101866.06
2019-01-03T22:24:00.638Z,101857.52
2019-01-03T22:26:39.820Z,101850.91
2019-01-03T22:29:19.226Z,101858.28
2019-01-03T22:32:00.162Z,101856.59
2019-01-03T22:34:40.235Z,101851.98
2019-01-03T22:37:19.570Z,101851.22
2019-01-03T22:39:58.820Z,101851.56
2019-01-03T22:42:38.197Z,101848.53
2019-01-03T22:45:17.353Z,101854.84
2019-01-03T22:47:56.661Z,101853.80
2019-01-03T22:50:35.786Z,101858.28
2019-01-03T22:53:14.952Z,101858.20
2019-01-03T22:55:54.387Z,101862.86
2019-01-03T22:58:33.547Z,101857.69
2019-01-03T23:01:13.415Z,101868.67
2019-01-03T23:03:52.651Z,101867.23
2019-01-03T23:06:32.073Z,101859.27
2019-01-03T23:09:11.563Z,101860.52
2019-01-03T23:11:50.881Z,101860.94
2019-01-03T23:14:30.129Z,101862.69
2019-01-03T23:17:09.639Z,101864.73
2019-01-03T23:19:50.588Z,101856.45
2019-01-03T23:22:29.826Z,101855.11
2019-01-03T23:25:09.030Z,101838.84
2019-01-03T23:27:48.301Z,101845.69
2019-01-03T23:30:27.519Z,101854.35
2019-01-03T23:33:06.883Z,101857.42
2019-01-03T23:35:47.843Z,101864.83
2019-01-03T23:38:27.388Z,101862.11
2019-01-03T23:41:06.596Z,101858.10
2019-01-03T23:43:45.850Z,101847.70
2019-01-03T23:46:25.491Z,101848.95
2019-01-03T23:49:04.778Z,101851.63
2019-01-03T23:51:44.062Z,101851.78
2019-01-03T23:54:23.476Z,101856.17
2019-01-03T23:57:02.916Z,101855.12
2019-01-03T23:59:42.243Z,101866.78
